Time;durP1;ratioP1;P1;durP2;ratioP2;P2;SDS_P1;SDS_P2;PMS_P1;PMS_P2;Temp;Humidity;BMP_temperature;BMP_pressure;BME280_temperature;BME280_humidity;BME280_pressure;Samples;Min_cycle;Max_cycle;Signal;HPM_P1;HPM_P2
2023/01/02 00:01:42;;;;;;;10.30;7.40;;;11.10;99.90;;;;;;5012456;28;20213;-81
2023/01/02 00:04:09;;;;;;;8.43;6.43;;;11.10;99.90;;;;;;5012680;28;20232;-81
2023/01/02 00:06:37;;;;;;;9.53;7.70;;;11.10;99.90;;;;;;5012218;28;20203;-82
2023/01/02 00:09:04;;;;;;;13.13;9.80;;;11.10;99.90;;;;;;5012542;28;20223;-81
2023/01/02 00:11:33;;;;;;;13.47;10.10;;;11.10;99.90;;;;;;5011454;28;20301;-81
2023/01/02 00:14:00;;;;;;;14.00;9.83;;;11.10;99.90;;;;;;5011400;28;20227;-81
2023/01/02 00:16:27;;;;;;;13.87;10.83;;;11.10;99.90;;;;;;5012087;28;20235;-81
2023/01/02 00:18:54;;;;;;;14.47;10.90;;;11.10;99.90;;;;;;5011334;28;20244;-79
2023/01/02 00:21:21;;;;;;;16.90;12.40;;;11.10;99.90;;;;;;5012257;28;20290;-80
2023/01/02 00:23:48;;;;;;;18.93;13.60;;;11.10;99.90;;;;;;5011918;28;20200;-81
2023/01/02 00:26:15;;;;;;;21.60;14.30;;;11.10;99.90;;;;;;5011326;28;20206;-80
2023/01/02 00:28:43;;;;;;;18.60;12.93;;;11.10;99.90;;;;;;5021018;28;20228;-80
2023/01/02 00:31:12;;;;;;;21.80;14.87;;;11.10;99.90;;;;;;5031135;28;20285;-81
2023/01/02 00:33:39;;;;;;;19.10;14.63;;;11.10;99.90;;;;;;5031476;28;20817;-81
2023/01/02 00:36:07;;;;;;;21.83;15.37;;;11.10;99.90;;;;;;5031156;28;20217;-81
2023/01/02 00:38:35;;;;;;;19.93;14.63;;;11.10;99.90;;;;;;5027436;28;20205;-81
2023/01/02 00:41:02;;;;;;;20.40;15.77;;;11.10;99.90;;;;;;5020644;28;20309;-84
2023/01/02 00:43:29;;;;;;;16.60;13.90;;;11.10;99.90;;;;;;5011368;28;20313;-83
2023/01/02 00:45:57;;;;;;;21.93;15.83;;;11.10;99.90;;;;;;5011922;28;20191;-80
2023/01/02 00:48:24;;;;;;;21.67;15.23;;;11.10;99.90;;;;;;5018551;28;20290;-83
2023/01/02 00:50:51;;;;;;;21.07;14.97;;;11.10;99.90;;;;;;5031707;28;20293;-81
2023/01/02 00:53:19;;;;;;;16.60;14.13;;;11.10;99.90;;;;;;5027099;28;20210;-83
2023/01/02 00:55:46;;;;;;;19.00;14.47;;;11.10;99.90;;;;;;5013176;28;20493;-82
2023/01/02 00:58:13;;;;;;;22.80;16.40;;;11.10;99.90;;;;;;5028716;28;20237;-81
2023/01/02 01:00:40;;;;;;;16.13;13.57;;;11.20;99.90;;;;;;5038748;28;20204;-82
2023/01/02 01:03:09;;;;;;;21.07;14.40;;;11.10;99.90;;;;;;5037863;28;20564;-84
2023/01/02 01:05:39;;;;;;;18.27;14.23;;;11.10;99.90;;;;;;5033688;28;20297;-88
2023/01/02 01:08:06;;;;;;;17.60;14.00;;;11.10;99.90;;;;;;5017245;28;20191;-83
2023/01/02 01:10:35;;;;;;;16.07;12.60;;;11.10;99.90;;;;;;5018132;28;20358;-82
2023/01/02 01:13:02;;;;;;;21.07;13.63;;;11.20;99.90;;;;;;5018801;28;20305;-84
2023/01/02 01:15:28;;;;;;;20.53;13.13;;;11.20;99.90;;;;;;5018019;28;20713;-82
2023/01/02 01:17:55;;;;;;;18.27;13.00;;;11.20;99.90;;;;;;5018878;28;20524;-81
2023/01/02 01:20:24;;;;;;;16.33;12.43;;;11.20;99.90;;;;;;5020325;28;20222;-88
2023/01/02 01:22:51;;;;;;;17.23;12.33;;;11.20;99.90;;;;;;5024049;28;20743;-87
2023/01/02 01:25:18;;;;;;;15.73;11.93;;;11.30;99.90;;;;;;5040017;28;20201;-88
2023/01/02 01:27:45;;;;;;;19.23;11.57;;;11.30;99.90;;;;;;5040450;28;20210;-87
2023/01/02 01:30:12;;;;;;;15.73;10.90;;;11.30;99.90;;;;;;5032526;28;20218;-88
2023/01/02 01:32:39;;;;;;;16.87;11.47;;;11.30;99.90;;;;;;5020327;28;20663;-88
2023/01/02 01:35:07;;;;;;;17.93;11.00;;;11.40;99.90;;;;;;5020443;28;20277;-87
2023/01/02 01:37:38;;;;;;;19.87;11.07;;;11.40;99.90;;;;;;5020525;28;20241;-88
2023/01/02 01:40:06;;;;;;;16.40;9.87;;;11.40;99.90;;;;;;5020332;28;20219;-88
2023/01/02 01:42:34;;;;;;;17.23;10.17;;;11.40;99.90;;;;;;5031333;28;20206;-90
2023/01/02 01:45:00;;;;;;;12.13;9.17;;;11.40;99.90;;;;;;5039838;28;20285;-90
2023/01/02 01:47:37;;;;;;;18.93;9.83;;;11.50;99.90;;;;;;5040214;28;20277;-90
2023/01/02 01:50:09;;;;;;;17.80;9.73;;;11.50;99.90;;;;;;5020412;28;20307;-89
2023/01/02 01:52:41;;;;;;;15.13;8.20;;;11.50;99.90;;;;;;5019223;28;20203;-87
2023/01/02 01:55:12;;;;;;;15.20;8.17;;;11.50;99.90;;;;;;5018383;28;20191;-86
2023/01/02 01:57:43;;;;;;;13.67;8.40;;;11.60;99.90;;;;;;5017895;28;20321;-87
2023/01/02 02:00:12;;;;;;;12.30;8.03;;;11.60;99.90;;;;;;5020065;28;20278;-85
2023/01/02 02:02:42;;;;;;;17.63;8.67;;;11.60;99.90;;;;;;5027757;28;20213;-85
2023/01/02 02:05:11;;;;;;;14.23;8.23;;;11.60;99.90;;;;;;5039790;28;20206;-85
2023/01/02 02:07:48;;;;;;;16.47;8.87;;;11.60;99.90;;;;;;5037015;28;20199;-87
2023/01/02 02:10:15;;;;;;;14.07;8.97;;;11.60;99.90;;;;;;5023987;28;20265;-86
2023/01/02 02:12:41;;;;;;;14.77;8.77;;;11.60;99.90;;;;;;5016652;28;20206;-85
2023/01/02 02:15:11;;;;;;;13.70;9.33;;;11.60;99.90;;;;;;5015998;28;20310;-82
2023/01/02 02:17:50;;;;;;;20.10;10.27;;;11.70;99.90;;;;;;5016224;28;20203;-90
2023/01/02 02:20:31;;;;;;;16.10;9.20;;;11.70;99.90;;;;;;5033994;28;20210;-91
2023/01/02 02:23:31;;;;;;;19.13;9.30;;;11.70;99.90;;;;;;5036591;28;20194;-84
2023/01/02 02:26:44;;;;;;;15.37;8.37;;;11.70;99.90;;;;;;5036145;28;20191;-87
2023/01/02 02:29:51;;;;;;;17.13;10.63;;;11.70;99.90;;;;;;4990005;28;20302;-87
2023/01/02 02:32:27;;;;;;;17.20;10.27;;;11.70;99.90;;;;;;5023083;28;20207;-86
2023/01/02 02:35:04;;;;;;;21.60;11.57;;;11.70;99.90;;;;;;5016276;28;20294;-86
2023/01/02 02:37:40;;;;;;;19.93;10.57;;;11.70;99.90;;;;;;5030624;28;20491;-87
2023/01/02 02:40:16;;;;;;;19.50;12.20;;;11.70;99.90;;;;;;5033214;28;20269;-83
2023/01/02 02:42:53;;;;;;;18.33;11.30;;;11.70;99.90;;;;;;5033785;28;20285;-82
2023/01/02 02:45:30;;;;;;;17.30;10.70;;;11.60;99.90;;;;;;5034193;28;20198;-82
2023/01/02 02:48:05;;;;;;;13.13;9.17;;;11.70;99.90;;;;;;5032470;28;20208;-84
2023/01/02 02:50:38;;;;;;;12.83;9.10;;;11.70;99.90;;;;;;5034640;28;20797;-84
2023/01/02 02:53:10;;;;;;;13.93;8.73;;;11.70;99.90;;;;;;5019010;28;20199;-81
2023/01/02 02:55:42;;;;;;;10.67;7.50;;;11.60;99.90;;;;;;5015032;28;20582;-87
2023/01/02 02:58:10;;;;;;;10.00;7.13;;;11.60;99.90;;;;;;5015475;28;20330;-86
2023/01/02 03:00:37;;;;;;;12.23;7.43;;;11.60;99.90;;;;;;5025883;28;20204;-87
2023/01/02 03:03:16;;;;;;;10.83;8.53;;;11.60;99.90;;;;;;5035474;28;20195;-87
2023/01/02 03:05:48;;;;;;;13.03;9.40;;;11.60;99.90;;;;;;5035475;28;20278;-86
2023/01/02 03:08:22;;;;;;;13.07;10.33;;;11.60;99.90;;;;;;5035458;28;20487;-85
2023/01/02 03:10:56;;;;;;;14.13;10.73;;;11.60;99.90;;;;;;5034139;28;20214;-83
2023/01/02 03:13:30;;;;;;;14.60;10.37;;;11.60;99.90;;;;;;5033747;28;20219;-84
2023/01/02 03:16:03;;;;;;;13.40;11.47;;;11.50;99.90;;;;;;5034192;28;20207;-88
2023/01/02 03:18:36;;;;;;;12.07;10.37;;;11.60;99.90;;;;;;5020610;28;20241;-87
2023/01/02 03:21:06;;;;;;;13.30;11.10;;;11.50;99.90;;;;;;5015401;28;20203;-87
2023/01/02 03:23:41;;;;;;;12.63;11.33;;;11.50;99.90;;;;;;5014918;28;20286;-84
2023/01/02 03:26:08;;;;;;;15.07;12.87;;;11.60;99.90;;;;;;5014333;28;20194;-85
2023/01/02 03:28:37;;;;;;;15.90;12.53;;;11.60;99.90;;;;;;5013756;28;20202;-84
2023/01/02 03:31:06;;;;;;;17.70;13.77;;;11.60;99.90;;;;;;5019591;28;20697;-85
2023/01/02 03:33:40;;;;;;;22.47;15.20;;;11.60;99.90;;;;;;5020886;28;20218;-83
2023/01/02 03:36:11;;;;;;;19.23;14.73;;;11.60;99.90;;;;;;5013119;28;20215;-85
2023/01/02 03:38:44;;;;;;;26.87;17.80;;;11.60;99.90;;;;;;5022216;28;20294;-84
2023/01/02 03:41:18;;;;;;;18.57;14.57;;;11.50;99.90;;;;;;5033081;28;20638;-82
2023/01/02 03:43:47;;;;;;;19.13;14.67;;;11.50;99.90;;;;;;5033962;28;20233;-85
2023/01/02 03:46:20;;;;;;;17.80;14.30;;;11.50;99.90;;;;;;5034009;28;20230;-85
2023/01/02 03:48:54;;;;;;;18.10;14.30;;;11.50;99.90;;;;;;5014892;28;20228;-80
2023/01/02 03:51:21;;;;;;;16.57;14.37;;;11.50;99.90;;;;;;5012941;28;20302;-80
2023/01/02 03:53:51;;;;;;;17.50;14.20;;;11.40;99.90;;;;;;5013019;28;20235;-85
2023/01/02 03:56:29;;;;;;;15.73;14.03;;;11.40;99.90;;;;;;5015171;28;20235;-86
2023/01/02 03:59:03;;;;;;;16.03;13.07;;;11.40;99.90;;;;;;5014783;28;20253;-86
2023/01/02 04:01:39;;;;;;;16.07;13.03;;;11.40;99.90;;;;;;5015428;28;20246;-87
2023/01/02 04:04:13;;;;;;;18.60;13.67;;;11.40;99.90;;;;;;5028775;28;20248;-87
2023/01/02 04:06:45;;;;;;;19.67;14.30;;;11.40;99.90;;;;;;5034600;28;20201;-87
2023/01/02 04:09:17;;;;;;;22.50;14.20;;;11.30;99.90;;;;;;5019289;28;20257;-88
2023/01/02 04:11:50;;;;;;;18.47;11.93;;;11.30;99.90;;;;;;5013102;28;20203;-83
2023/01/02 04:14:21;;;;;;;16.67;10.77;;;11.20;99.90;;;;;;5013397;28;20230;-82
2023/01/02 04:16:52;;;;;;;11.87;10.10;;;11.20;99.90;;;;;;5013293;28;20203;-84
2023/01/02 04:19:25;;;;;;;16.60;11.63;;;11.10;99.90;;;;;;5013255;28;20188;-85
2023/01/02 04:21:56;;;;;;;14.40;9.97;;;11.00;99.90;;;;;;5013684;28;20314;-87
2023/01/02 04:24:27;;;;;;;12.80;8.63;;;11.10;99.90;;;;;;5013584;28;20231;-81
2023/01/02 04:26:57;;;;;;;13.27;7.37;;;11.10;99.90;;;;;;5013812;28;20206;-83
2023/01/02 04:29:24;;;;;;;10.07;7.97;;;11.00;99.90;;;;;;5013272;28;20671;-87
2023/01/02 04:31:59;;;;;;;10.30;7.90;;;11.00;99.90;;;;;;5012169;28;20296;-85
2023/01/02 04:34:29;;;;;;;7.03;4.90;;;10.90;99.90;;;;;;5013210;28;20282;-86
2023/01/02 04:36:56;;;;;;;6.10;3.50;;;10.80;99.90;;;;;;5020692;28;20463;-84
2023/01/02 04:39:25;;;;;;;6.63;3.10;;;10.80;99.90;;;;;;5031772;28;20195;-80
2023/01/02 04:41:52;;;;;;;7.77;2.90;;;10.60;99.90;;;;;;5032160;28;20278;-79
2023/01/02 04:44:19;;;;;;;3.90;2.13;;;10.60;99.90;;;;;;5015048;28;20506;-80
2023/01/02 04:46:45;;;;;;;5.40;2.30;;;10.50;99.90;;;;;;5011007;28;20551;-81
2023/01/02 04:49:12;;;;;;;5.20;1.93;;;10.40;99.90;;;;;;5020814;28;20202;-81
2023/01/02 04:51:41;;;;;;;6.50;1.70;;;10.40;99.90;;;;;;5031781;28;20226;-81
2023/01/02 04:54:11;;;;;;;4.10;1.47;;;10.40;99.90;;;;;;5016485;28;20599;-81
2023/01/02 04:56:38;;;;;;;3.67;1.23;;;10.30;99.90;;;;;;5011460;28;20286;-81
2023/01/02 04:59:05;;;;;;;3.57;1.20;;;10.30;99.90;;;;;;5011811;28;20635;-84
2023/01/02 05:01:32;;;;;;;3.03;1.47;;;10.30;99.90;;;;;;5011339;28;20207;-87
2023/01/02 05:03:59;;;;;;;4.33;1.40;;;10.30;99.90;;;;;;5011757;28;20285;-82
2023/01/02 05:06:26;;;;;;;3.10;1.30;;;10.30;99.90;;;;;;5012635;28;20196;-83
2023/01/02 05:08:54;;;;;;;5.50;1.87;;;10.30;99.90;;;;;;5012705;28;20200;-87
2023/01/02 05:11:21;;;;;;;3.03;1.40;;;10.30;99.90;;;;;;5013723;28;20253;-87
2023/01/02 05:13:48;;;;;;;7.87;2.03;;;10.30;99.90;;;;;;5012664;28;20229;-81
2023/01/02 05:16:15;;;;;;;3.07;1.40;;;10.20;99.90;;;;;;5014260;28;20289;-85
2023/01/02 05:18:42;;;;;;;2.70;1.27;;;10.20;99.90;;;;;;5032083;28;20203;-81
2023/01/02 05:23:47;;;;;;;4.30;2.13;;;10.10;99.90;;;;;;5033682;28;20272;-86
2023/01/02 05:24:01;;;;;;;5.03;1.30;;;10.10;99.90;;;;;;5021906;28;20622;-85
2023/01/02 05:26:31;;;;;;;3.23;1.30;;;10.10;99.90;;;;;;5013904;28;20286;-86
2023/01/02 05:28:59;;;;;;;8.43;1.80;;;10.00;99.90;;;;;;5032705;28;20214;-85
2023/01/02 05:31:26;;;;;;;3.70;1.50;;;10.00;99.90;;;;;;5033261;28;20657;-87
2023/01/02 05:33:54;;;;;;;3.23;1.70;;;9.90;99.90;;;;;;5033914;28;20226;-86
2023/01/02 05:36:22;;;;;;;5.67;2.10;;;9.90;99.90;;;;;;5029294;28;20199;-87
2023/01/02 05:38:49;;;;;;;3.27;1.43;;;9.80;99.90;;;;;;5014003;28;20199;-87
2023/01/02 05:41:19;;;;;;;5.07;1.50;;;9.80;99.90;;;;;;5023541;28;20197;-86
2023/01/02 05:43:46;;;;;;;2.57;1.00;;;9.80;99.90;;;;;;5033251;28;20207;-81
2023/01/02 05:46:15;;;;;;;4.40;1.00;;;9.80;99.90;;;;;;5028472;28;20222;-82
2023/01/02 05:48:43;;;;;;;2.93;0.90;;;9.80;99.90;;;;;;5015205;28;20210;-82
2023/01/02 05:51:12;;;;;;;6.50;0.90;;;9.70;99.90;;;;;;5014948;28;20225;-80
2023/01/02 05:53:39;;;;;;;5.20;0.93;;;9.70;99.90;;;;;;5014874;28;20253;-82
2023/01/02 05:56:07;;;;;;;4.50;1.50;;;9.70;99.90;;;;;;5015199;28;20205;-80
2023/01/02 05:58:37;;;;;;;1.77;0.60;;;9.70;99.90;;;;;;5014528;28;20314;-81
2023/01/02 06:01:08;;;;;;;3.40;0.80;;;9.70;99.90;;;;;;5015438;28;20210;-82
2023/01/02 06:03:35;;;;;;;6.77;1.83;;;9.60;99.90;;;;;;5018355;28;20284;-81
2023/01/02 06:06:03;;;;;;;3.60;1.00;;;9.60;99.90;;;;;;5034238;28;20201;-81
2023/01/02 06:08:30;;;;;;;5.33;1.07;;;9.60;99.90;;;;;;5034682;28;20202;-84
2023/01/02 06:10:57;;;;;;;5.27;1.43;;;9.50;99.90;;;;;;5033805;28;20241;-81
2023/01/02 06:13:24;;;;;;;3.43;1.10;;;9.50;99.90;;;;;;5033161;28;20206;-81
2023/01/02 06:15:54;;;;;;;9.73;1.60;;;9.60;99.90;;;;;;5034246;28;20205;-84
2023/01/02 06:18:21;;;;;;;4.63;1.00;;;9.60;99.90;;;;;;5032883;28;20217;-85
2023/01/02 06:20:48;;;;;;;8.20;1.00;;;9.50;99.90;;;;;;5034405;28;20195;-82
2023/01/02 06:23:15;;;;;;;4.50;1.00;;;9.50;99.90;;;;;;5033142;28;20210;-83
2023/01/02 06:25:42;;;;;;;6.50;1.20;;;9.50;99.90;;;;;;5013159;28;20211;-82
2023/01/02 06:28:09;;;;;;;7.77;1.40;;;9.50;99.90;;;;;;5013921;28;20199;-80
2023/01/02 06:30:36;;;;;;;7.07;1.03;;;9.50;99.90;;;;;;5017801;28;20210;-80
2023/01/02 06:33:04;;;;;;;5.70;1.20;;;9.50;99.90;;;;;;5033320;28;20294;-81
2023/01/02 06:35:31;;;;;;;7.33;1.53;;;9.50;99.90;;;;;;5033633;28;20209;-81
2023/01/02 06:37:58;;;;;;;7.07;1.20;;;9.50;99.90;;;;;;5031341;28;20673;-81
2023/01/02 06:40:25;;;;;;;8.67;2.23;;;9.50;99.90;;;;;;5013242;28;20306;-80
2023/01/02 06:42:51;;;;;;;7.23;1.63;;;9.60;99.90;;;;;;5013336;28;20203;-79
2023/01/02 06:45:18;;;;;;;9.63;1.63;;;9.60;99.90;;;;;;5013783;28;20210;-79
2023/01/02 06:47:45;;;;;;;9.13;1.43;;;9.60;99.90;;;;;;5013257;28;20206;-80
2023/01/02 06:50:14;;;;;;;6.67;1.33;;;9.60;99.90;;;;;;5014514;28;20210;-83
2023/01/02 06:52:41;;;;;;;8.70;1.80;;;9.60;99.90;;;;;;5031762;28;20293;-80
2023/01/02 06:55:08;;;;;;;10.83;1.60;;;9.60;99.90;;;;;;5013304;28;20282;-80
2023/01/02 06:57:35;;;;;;;10.03;2.90;;;9.50;99.90;;;;;;5013613;28;20243;-80
2023/01/02 07:00:03;;;;;;;9.93;1.50;;;9.50;99.90;;;;;;5013031;28;20203;-81
2023/01/02 07:02:30;;;;;;;10.27;1.70;;;9.50;99.90;;;;;;5013666;28;20231;-81
2023/01/02 07:04:57;;;;;;;10.57;2.43;;;9.60;99.90;;;;;;5013210;28;20203;-81
2023/01/02 07:07:25;;;;;;;11.17;3.13;;;9.60;99.90;;;;;;5012729;28;20203;-81
2023/01/02 07:09:52;;;;;;;7.43;3.30;;;9.50;99.90;;;;;;5013079;28;20945;-81
2023/01/02 07:12:19;;;;;;;7.70;3.10;;;9.50;99.90;;;;;;5012920;28;20573;-82
2023/01/02 07:14:46;;;;;;;11.77;3.27;;;9.60;99.90;;;;;;5013814;28;20309;-84
2023/01/02 07:17:13;;;;;;;8.73;3.37;;;9.60;99.90;;;;;;5028965;28;20293;-81
2023/01/02 07:19:40;;;;;;;5.50;1.70;;;9.60;99.90;;;;;;5034971;28;20462;-84
2023/01/02 07:22:06;;;;;;;5.80;2.23;;;9.60;99.90;;;;;;5033710;28;20202;-82
2023/01/02 07:24:35;;;;;;;5.83;2.23;;;9.60;99.90;;;;;;5022990;28;20544;-81
2023/01/02 07:27:02;;;;;;;5.43;1.43;;;9.60;99.90;;;;;;5014244;28;20203;-85
2023/01/02 07:29:29;;;;;;;3.83;1.47;;;9.50;99.90;;;;;;5013018;28;20603;-81
2023/01/02 07:31:56;;;;;;;5.00;2.10;;;9.50;99.90;;;;;;5013007;28;20230;-81
2023/01/02 07:34:22;;;;;;;3.87;1.10;;;9.50;99.90;;;;;;5013108;28;20825;-83
2023/01/02 07:36:49;;;;;;;4.37;1.27;;;9.50;99.90;;;;;;5011869;28;20626;-82
2023/01/02 07:39:16;;;;;;;4.20;1.53;;;9.50;99.90;;;;;;5013730;28;20630;-83
2023/01/02 07:41:45;;;;;;;5.10;1.70;;;9.50;99.90;;;;;;5013388;28;20504;-83
2023/01/02 07:44:12;;;;;;;4.10;1.77;;;9.60;99.90;;;;;;5012966;28;20231;-81
2023/01/02 07:46:39;;;;;;;6.30;2.07;;;9.60;99.90;;;;;;5012282;28;20211;-83
2023/01/02 07:49:06;;;;;;;6.23;1.90;;;9.60;99.90;;;;;;5010983;28;20187;-82
2023/01/02 07:51:33;;;;;;;5.03;2.23;;;9.60;99.90;;;;;;5011745;28;20218;-83
2023/01/02 07:54:00;;;;;;;4.87;1.77;;;9.60;99.90;;;;;;5011897;28;20294;-82
2023/01/02 07:56:27;;;;;;;5.10;1.60;;;9.50;99.90;;;;;;5014249;28;20205;-84
2023/01/02 07:58:56;;;;;;;5.80;1.83;;;9.60;99.90;;;;;;5026363;28;20236;-87
2023/01/02 08:01:24;;;;;;;8.73;2.20;;;9.60;99.90;;;;;;5034739;28;20289;-85
2023/01/02 08:03:50;;;;;;;9.13;2.13;;;9.60;99.90;;;;;;5033539;28;20288;-81
2023/01/02 08:06:18;;;;;;;7.20;2.00;;;9.60;99.90;;;;;;5032065;28;20205;-83
2023/01/02 08:08:45;;;;;;;9.30;2.37;;;9.60;99.90;;;;;;5031694;28;20217;-82
2023/01/02 08:11:14;;;;;;;6.33;1.70;;;9.50;99.90;;;;;;5029341;28;20226;-83
2023/01/02 08:13:43;;;;;;;11.77;2.53;;;9.40;99.90;;;;;;5029365;28;20211;-81
2023/01/02 08:16:13;;;;;;;13.93;2.30;;;9.50;99.90;;;;;;5034557;28;20253;-82
2023/01/02 08:18:40;;;;;;;9.67;2.50;;;9.50;99.90;;;;;;5025923;28;20234;-80
2023/01/02 08:21:07;;;;;;;10.30;2.33;;;9.50;99.90;;;;;;5032155;28;20289;-81
2023/01/02 08:23:35;;;;;;;12.53;2.20;;;9.50;99.90;;;;;;5027524;28;20910;-82
2023/01/02 08:26:04;;;;;;;9.87;2.17;;;9.40;99.90;;;;;;5030868;28;20198;-80
2023/01/02 08:28:32;;;;;;;6.23;1.83;;;9.40;99.90;;;;;;5027903;28;20207;-81
2023/01/02 08:31:00;;;;;;;7.70;2.13;;;9.40;99.90;;;;;;5029873;28;20293;-81
2023/01/02 08:33:28;;;;;;;15.47;2.10;;;9.40;99.90;;;;;;5011500;28;20206;-81
2023/01/02 08:35:55;;;;;;;12.90;3.40;;;9.40;99.90;;;;;;5023856;28;20202;-81
2023/01/02 08:38:22;;;;;;;6.87;1.60;;;9.40;99.90;;;;;;5031152;28;20556;-81
2023/01/02 08:40:50;;;;;;;6.47;2.10;;;9.50;99.90;;;;;;5031863;28;20198;-81
2023/01/02 08:43:17;;;;;;;7.83;2.83;;;9.40;99.90;;;;;;5029773;28;20217;-80
2023/01/02 08:45:44;;;;;;;9.90;3.50;;;9.40;99.90;;;;;;5022943;28;20837;-81
2023/01/02 08:48:10;;;;;;;10.57;3.50;;;9.40;99.90;;;;;;5011735;28;20233;-80
2023/01/02 08:50:39;;;;;;;12.37;4.53;;;9.40;99.90;;;;;;5012328;28;20213;-79
2023/01/02 08:53:06;;;;;;;13.63;5.07;;;9.40;99.90;;;;;;5011389;28;20249;-81
2023/01/02 08:55:33;;;;;;;12.17;4.33;;;9.40;99.90;;;;;;5030290;28;20288;-82
2023/01/02 08:57:59;;;;;;;9.87;3.00;;;9.40;99.90;;;;;;5031257;28;20288;-81
2023/01/02 09:00:26;;;;;;;9.40;3.57;;;9.40;99.90;;;;;;5030476;28;20535;-81
2023/01/02 09:02:53;;;;;;;14.53;3.97;;;9.50;99.90;;;;;;5031214;28;20191;-80
2023/01/02 09:05:20;;;;;;;14.43;5.03;;;9.50;99.90;;;;;;5022674;28;20758;-80
2023/01/02 09:07:48;;;;;;;17.53;4.50;;;9.40;99.90;;;;;;5010899;28;20203;-81
2023/01/02 09:10:15;;;;;;;11.23;4.03;;;9.50;99.90;;;;;;5011631;28;20618;-82
2023/01/02 09:12:42;;;;;;;18.67;5.57;;;9.50;99.90;;;;;;5011548;28;20318;-80
2023/01/02 09:15:10;;;;;;;13.03;3.20;;;9.50;99.90;;;;;;5010308;28;20662;-84
2023/01/02 09:17:37;;;;;;;7.67;1.77;;;9.50;99.90;;;;;;5013519;28;20620;-79
2023/01/02 09:20:04;;;;;;;8.33;1.80;;;9.50;99.90;;;;;;5015402;28;20199;-80
2023/01/02 09:22:31;;;;;;;7.53;1.63;;;9.50;99.90;;;;;;5014682;28;20509;-79
2023/01/02 09:24:59;;;;;;;10.47;2.83;;;9.50;99.90;;;;;;5014765;28;20218;-80
2023/01/02 09:27:26;;;;;;;7.27;1.90;;;9.50;99.90;;;;;;5014913;28;20231;-80
2023/01/02 09:29:53;;;;;;;8.03;1.77;;;9.50;99.90;;;;;;5015649;28;20199;-79
2023/01/02 09:32:20;;;;;;;6.43;1.90;;;9.50;99.90;;;;;;5014751;28;20226;-79
2023/01/02 09:34:49;;;;;;;9.03;2.23;;;9.50;99.90;;;;;;5013155;28;20268;-80
2023/01/02 09:37:16;;;;;;;7.87;2.03;;;9.50;99.90;;;;;;5049957;28;20763;-79
2023/01/02 09:39:44;;;;;;;10.57;2.40;;;9.50;99.90;;;;;;5030455;28;20457;-79
2023/01/02 09:42:15;;;;;;;8.83;1.77;;;9.50;99.90;;;;;;5034851;28;20202;-79
2023/01/02 09:44:46;;;;;;;7.90;1.83;;;9.50;99.90;;;;;;5038624;28;20730;-78
2023/01/02 09:47:17;;;;;;;11.10;3.20;;;9.50;99.90;;;;;;5034413;28;20198;-78
2023/01/02 09:49:47;;;;;;;8.47;3.03;;;9.50;99.90;;;;;;5017996;28;20239;-79
2023/01/02 09:52:21;;;;;;;7.90;2.90;;;9.50;99.90;;;;;;5034788;28;20532;-82
2023/01/02 09:54:48;;;;;;;8.47;2.30;;;9.50;99.90;;;;;;5034715;28;20678;-82
2023/01/02 09:57:27;;;;;;;11.90;3.10;;;9.60;99.90;;;;;;5021489;28;20271;-81
2023/01/02 09:59:57;;;;;;;8.20;2.47;;;9.60;99.90;;;;;;5014896;28;20218;-79
2023/01/02 10:02:39;;;;;;;14.73;2.77;;;9.70;99.90;;;;;;5014014;28;20206;-82
2023/01/02 10:05:23;;;;;;;11.83;2.63;;;9.70;99.90;;;;;;5014675;28;20215;-79
2023/01/02 10:07:58;;;;;;;11.10;2.17;;;9.80;99.90;;;;;;5014672;28;20222;-78
2023/01/02 10:10:33;;;;;;;11.20;2.60;;;9.80;99.90;;;;;;5012924;28;20931;-78
2023/01/02 10:13:07;;;;;;;10.93;2.40;;;9.90;99.90;;;;;;5014578;28;20214;-79
2023/01/02 10:15:35;;;;;;;10.40;2.50;;;9.90;99.90;;;;;;5014570;28;20223;-81
2023/01/02 10:18:13;;;;;;;13.50;2.70;;;9.90;99.90;;;;;;5012778;28;20877;-81
2023/01/02 10:20:45;;;;;;;13.17;3.23;;;9.90;99.90;;;;;;5014354;28;20293;-79
2023/01/02 10:23:16;;;;;;;15.57;3.00;;;9.90;99.90;;;;;;5014124;28;20278;-79
2023/01/02 10:25:49;;;;;;;10.87;3.03;;;9.90;99.90;;;;;;5013344;28;20291;-77
2023/01/02 10:28:27;;;;;;;12.03;3.57;;;9.90;99.90;;;;;;5022602;28;20206;-78
2023/01/02 10:30:56;;;;;;;13.30;3.57;;;9.90;99.90;;;;;;5032909;28;20198;-79
2023/01/02 10:33:30;;;;;;;10.97;3.23;;;9.90;99.90;;;;;;5033919;28;20433;-78
2023/01/02 10:36:00;;;;;;;11.03;3.10;;;9.90;99.90;;;;;;5033754;28;20205;-82
2023/01/02 10:38:35;;;;;;;16.37;4.77;;;9.90;99.90;;;;;;5031706;28;20198;-79
2023/01/02 10:41:02;;;;;;;16.80;3.40;;;9.90;99.90;;;;;;5034082;28;20202;-80
2023/01/02 10:43:33;;;;;;;13.33;4.70;;;10.00;99.90;;;;;;5031171;28;20567;-79
2023/01/02 10:46:01;;;;;;;20.73;4.53;;;10.00;99.90;;;;;;5032625;28;20198;-81
2023/01/02 10:48:33;;;;;;;14.83;3.97;;;10.10;99.90;;;;;;5018646;28;20211;-78
2023/01/02 10:51:03;;;;;;;16.90;3.23;;;10.00;99.90;;;;;;5014002;28;20195;-78
2023/01/02 10:53:32;;;;;;;12.90;3.07;;;10.10;99.90;;;;;;5041319;28;20232;-79
2023/01/02 10:56:02;;;;;;;16.07;3.73;;;10.20;99.90;;;;;;5038679;28;20291;-78
2023/01/02 10:58:33;;;;;;;17.77;3.60;;;10.20;99.90;;;;;;5027387;28;20231;-78
2023/01/02 11:01:05;;;;;;;10.20;2.80;;;10.30;99.90;;;;;;5032624;28;20784;-78
2023/01/02 11:03:33;;;;;;;10.33;3.37;;;10.30;99.90;;;;;;5044272;28;20238;-79
2023/01/02 11:06:01;;;;;;;11.30;2.70;;;10.40;99.90;;;;;;5031028;28;20226;-78
2023/01/02 11:08:36;;;;;;;16.03;3.30;;;10.40;99.90;;;;;;5031643;28;20265;-78
2023/01/02 11:11:13;;;;;;;13.67;3.00;;;10.50;99.90;;;;;;5032182;28;20198;-79
2023/01/02 11:13:47;;;;;;;19.60;3.77;;;10.50;99.90;;;;;;5025037;28;20217;-79
2023/01/02 11:16:16;;;;;;;13.20;3.73;;;10.50;99.90;;;;;;5012719;28;20286;-79
2023/01/02 11:18:51;;;;;;;17.43;3.60;;;10.50;99.90;;;;;;5013196;28;20203;-81
2023/01/02 11:21:26;;;;;;;16.83;3.50;;;10.60;99.90;;;;;;5012094;28;20179;-79
2023/01/02 11:23:59;;;;;;;17.17;3.80;;;10.50;99.90;;;;;;5023641;28;20213;-79
2023/01/02 11:26:28;;;;;;;18.00;4.03;;;10.40;99.90;;;;;;5032909;28;20191;-80
2023/01/02 11:29:04;;;;;;;14.87;3.90;;;10.40;99.90;;;;;;5032074;28;20195;-79
2023/01/02 11:31:32;;;;;;;11.47;2.93;;;10.50;99.90;;;;;;5015826;28;20246;-80
2023/01/02 11:34:09;;;;;;;12.90;3.60;;;10.40;99.90;;;;;;5012247;28;20330;-77
2023/01/02 11:36:36;;;;;;;8.67;3.23;;;10.50;99.90;;;;;;5032075;28;20487;-79
2023/01/02 11:39:21;;;;;;;10.73;3.00;;;10.50;99.90;;;;;;5032369;28;20205;-80
2023/01/02 11:44:50;;;;;;;18.07;4.90;;;10.50;99.90;;;;;;5031295;28;20499;-78
2023/01/02 11:47:19;;;;;;;15.60;4.47;;;10.50;99.90;;;;;;5032318;28;20192;-79
2023/01/02 11:49:48;;;;;;;10.03;4.37;;;10.50;99.90;;;;;;5031173;28;20285;-79
2023/01/02 11:52:19;;;;;;;17.93;5.13;;;10.50;99.90;;;;;;5030992;28;20226;-79
2023/01/02 11:54:54;;;;;;;17.70;5.67;;;10.40;99.90;;;;;;5032358;28;20202;-82
2023/01/02 11:57:34;;;;;;;15.20;3.63;;;10.40;99.90;;;;;;5031230;28;20602;-79
2023/01/02 12:00:06;;;;;;;16.00;4.30;;;10.40;99.90;;;;;;5029365;28;20195;-79
2023/01/02 12:02:39;;;;;;;19.07;5.57;;;10.40;99.90;;;;;;5011185;28;20592;-78
2023/01/02 12:05:11;;;;;;;22.63;6.60;;;10.40;99.90;;;;;;5011689;28;20249;-80
2023/01/02 12:07:44;;;;;;;25.43;6.57;;;10.40;99.90;;;;;;5012525;28;20279;-81
2023/01/02 12:10:34;;;;;;;27.30;7.90;;;10.40;99.90;;;;;;5010063;28;20214;-79
2023/01/02 12:13:18;;;;;;;15.87;6.47;;;10.40;99.90;;;;;;5027854;28;20296;-80
2023/01/02 12:16:19;;;;;;;13.93;5.20;;;10.40;99.90;;;;;;5039181;28;20229;-87
2023/01/02 12:19:13;;;;;;;16.63;4.63;;;10.40;99.90;;;;;;5013065;28;20277;-84
2023/01/02 12:21:48;;;;;;;20.00;5.87;;;10.40;99.90;;;;;;5013800;28;20314;-80
2023/01/02 12:24:39;;;;;;;17.90;5.17;;;10.50;99.90;;;;;;5013056;28;20202;-82
2023/01/02 12:27:10;;;;;;;16.57;4.50;;;10.40;99.90;;;;;;5013451;28;20396;-84
2023/01/02 12:29:50;;;;;;;12.50;4.30;;;10.40;99.90;;;;;;5013669;28;20203;-83
2023/01/02 12:33:06;;;;;;;15.40;3.17;;;10.50;99.90;;;;;;5012164;28;20245;-80
2023/01/02 12:35:57;;;;;;;11.73;3.30;;;10.40;99.90;;;;;;5011581;28;20190;-82
2023/01/02 12:38:32;;;;;;;16.40;3.20;;;10.40;99.90;;;;;;5011489;28;20214;-81
2023/01/02 12:41:13;;;;;;;12.87;3.33;;;10.40;99.90;;;;;;5016366;28;20708;-84
2023/01/02 12:44:01;;;;;;;11.57;3.47;;;10.30;99.90;;;;;;5034211;28;20189;-81
2023/01/02 12:46:43;;;;;;;14.53;3.13;;;10.40;99.90;;;;;;5024472;28;20286;-84
2023/01/02 12:49:26;;;;;;;13.47;3.07;;;10.40;99.90;;;;;;5013741;28;20222;-86
2023/01/02 12:52:01;;;;;;;14.30;2.47;;;10.30;99.90;;;;;;5013304;28;20343;-86
2023/01/02 12:54:47;;;;;;;12.73;3.77;;;10.30;99.90;;;;;;5026129;28;20357;-82
2023/01/02 12:57:21;;;;;;;10.47;3.37;;;10.20;99.90;;;;;;5034077;28;20197;-84
2023/01/02 13:00:05;;;;;;;19.40;4.30;;;10.20;99.90;;;;;;5034082;28;20290;-88
2023/01/02 13:02:50;;;;;;;9.87;2.67;;;10.20;99.90;;;;;;5014043;28;20195;-86
2023/01/02 13:05:21;;;;;;;14.73;3.37;;;10.20;99.90;;;;;;5026969;28;20293;-86